アムステルダム/スキポール の空港の天気 - METARとTAF

スキポール空港(アムステルダム) ( EHAM / AMS ) - オランダ アムステルダム
飛行場実況気象(Metar)
観測時間07/22 20:25 CEST (07/22 18:25 UTC)
風向・風速西北西 4m/s
視程10km以上
天気現象
なし
気温21℃
湿度64%
気圧1015hPa
METAREHAM 221825Z 30008KT 270V330 CAVOK 21/14 Q1015 NOSIG
過去の天気等 Google飛行場航空写真 Wunderground天気予報

過去48時間のMETAR

飛行場予報(TAF)
発表時間: 7/22 18:39 CEST (7/22 16:39 UTC)
予報対象時間: 22日20時 CEST ~ 24日2時 CEST
風向・風速西北西 5m/s
視程10km以上
なし
22日20時 CEST ~ 22日23時 CEST に徐々に
風向・風速西 3m/s
23日2時 CEST ~ 23日5時 CEST に徐々に
風向・風速不定 2m/s
視程7000m
天気現象地霧
23日4時 CEST ~ 23日7時 CEST に 確率 40% で一時的に
視程1400m
天気現象散在した霧
23日7時 CEST ~ 23日9時 CEST に徐々に
視程10km以上
なし
23日13時 CEST ~ 23日16時 CEST に徐々に
風向・風速西北西 4m/s
23日20時 CEST ~ 23日23時 CEST に徐々に
風向・風速不定 2m/s
TAF EHAM 221639Z 2218/2324 29010KT CAVOK
BECMG 2218/2221 28005KT
BECMG 2300/2303 VRB03KT 7000 MIFG
PROB40 TEMPO 2302/2305 1400 BCFG
BECMG 2305/2307 CAVOK
BECMG 2311/2314 30008KT
BECMG 2318/2321 VRB03KT